createdAt,value
2018-03-25T00:02:38.304Z,100431.39
2018-03-25T00:07:40.974Z,100437.36
2018-03-25T00:12:43.511Z,100441.75
2018-03-25T00:17:46.132Z,100438.41
2018-03-25T00:22:48.685Z,100437.55
2018-03-25T00:27:51.228Z,100439.79
2018-03-25T00:32:53.713Z,100440.41
2018-03-25T00:37:56.182Z,100441.95
2018-03-25T00:42:58.704Z,100433.48
2018-03-25T00:48:01.569Z,100446.33
2018-03-25T00:53:04.081Z,100450.02
2018-03-25T00:58:06.543Z,100443.63
2018-03-25T01:03:09.103Z,100447.11
2018-03-25T01:08:11.608Z,100445.34
2018-03-25T01:13:14.160Z,100448.18
2018-03-25T01:18:16.725Z,100444.45
2018-03-25T01:23:19.402Z,100444.80
2018-03-25T01:28:21.886Z,100443.80
2018-03-25T01:33:24.354Z,100436.94
2018-03-25T01:38:26.856Z,100440.81
2018-03-25T01:43:29.371Z,100430.59
2018-03-25T01:48:31.868Z,100426.98
2018-03-25T01:53:34.318Z,100428.45
2018-03-25T01:58:36.777Z,100427.90
2018-03-25T02:03:39.452Z,100421.11
2018-03-25T02:08:42.166Z,100425.05
2018-03-25T02:13:44.683Z,100422.31
2018-03-25T02:18:47.184Z,100420.06
2018-03-25T02:23:49.668Z,100422.02
2018-03-25T02:28:52.240Z,100422.22
2018-03-25T02:33:54.702Z,100421.27
2018-03-25T02:38:57.177Z,100426.96
2018-03-25T02:43:59.642Z,100426.91
2018-03-25T02:49:02.110Z,100431.88
2018-03-25T02:54:04.603Z,100437.36
2018-03-25T02:59:07.128Z,100433.58
2018-03-25T03:04:09.682Z,100439.09
2018-03-25T03:09:12.222Z,100443.33
2018-03-25T03:14:14.766Z,100446.87
2018-03-25T03:19:17.284Z,100448.19
2018-03-25T03:24:19.761Z,100452.98
2018-03-25T03:29:22.221Z,100454.04
2018-03-25T03:34:24.703Z,100449.02
2018-03-25T03:39:27.210Z,100453.19
2018-03-25T03:44:29.692Z,100456.09
2018-03-25T03:49:32.704Z,100455.38
2018-03-25T03:54:35.200Z,100457.84
2018-03-25T03:59:37.780Z,100468.90
2018-03-25T04:04:40.394Z,100468.71
2018-03-25T04:09:42.918Z,100467.20
2018-03-25T04:14:45.433Z,100475.16
2018-03-25T04:19:48.151Z,100468.34
2018-03-25T04:24:50.626Z,100470.47
2018-03-25T04:29:53.147Z,100471.34
2018-03-25T04:34:55.965Z,100474.34
2018-03-25T04:39:58.461Z,100466.05
2018-03-25T04:45:00.920Z,100467.36
2018-03-25T04:50:03.377Z,100466.83
2018-03-25T04:55:05.838Z,100475.55
2018-03-25T05:00:08.362Z,100474.73
2018-03-25T05:05:10.885Z,100482.53
2018-03-25T05:10:13.548Z,100480.39
2018-03-25T05:15:16.034Z,100483.31
2018-03-25T05:20:18.545Z,100474.55
2018-03-25T05:25:21.065Z,100481.88
2018-03-25T05:30:23.655Z,100481.23
2018-03-25T05:35:26.111Z,100481.17
2018-03-25T05:40:28.590Z,100484.03
2018-03-25T05:45:31.084Z,100484.66
2018-03-25T05:50:33.565Z,100487.75
2018-03-25T05:55:36.766Z,100491.20
2018-03-25T06:00:39.282Z,100486.20
2018-03-25T06:05:41.803Z,100477.46
2018-03-25T06:10:44.316Z,100479.27
2018-03-25T06:15:46.901Z,100490.08
2018-03-25T06:20:49.382Z,100484.30
2018-03-25T06:25:51.847Z,100495.07
2018-03-25T06:30:54.346Z,100490.78
2018-03-25T06:35:56.816Z,100497.56
2018-03-25T06:40:59.309Z,100503.56
2018-03-25T06:46:01.784Z,100507.32
2018-03-25T06:51:04.278Z,100508.06
2018-03-25T06:56:06.798Z,100510.94
2018-03-25T07:01:09.343Z,100518.30
2018-03-25T07:06:11.966Z,100513.06
2018-03-25T07:11:15.577Z,100509.81
2018-03-25T07:16:18.056Z,100512.88
2018-03-25T07:21:20.532Z,100525.56
2018-03-25T07:26:23.024Z,100517.45
2018-03-25T07:31:25.517Z,100524.29
2018-03-25T07:36:28.029Z,100529.44
2018-03-25T07:41:30.535Z,100529.66
2018-03-25T07:46:33.043Z,100541.41
2018-03-25T07:51:35.517Z,100542.89
2018-03-25T07:56:38.161Z,100539.24
2018-03-25T08:01:40.794Z,100546.05
2018-03-25T08:06:43.321Z,100551.53
2018-03-25T08:11:48.010Z,100557.12
2018-03-25T08:16:50.525Z,100555.97
2018-03-25T08:21:53.131Z,100566.07
2018-03-25T08:26:55.618Z,100573.41
2018-03-25T08:31:58.110Z,100568.23
2018-03-25T08:37:00.561Z,100563.61
2018-03-25T08:42:03.075Z,100566.25
2018-03-25T08:47:05.600Z,100569.12
2018-03-25T08:52:08.084Z,100571.47
2018-03-25T08:57:10.613Z,100571.93
2018-03-25T09:02:13.150Z,100567.30
2018-03-25T09:07:15.869Z,100566.34
2018-03-25T09:12:18.435Z,100564.88
2018-03-25T09:17:20.914Z,100568.41
2018-03-25T09:22:23.423Z,100566.48
2018-03-25T09:27:26.854Z,100565.30
2018-03-25T09:32:29.341Z,100559.13
2018-03-25T09:37:31.873Z,100566.82
2018-03-25T09:42:34.367Z,100558.48
2018-03-25T09:47:36.889Z,100554.84
2018-03-25T09:52:39.516Z,100553.59
2018-03-25T09:57:42.030Z,100554.39
2018-03-25T10:02:50.558Z,100552.34
2018-03-25T10:07:53.168Z,100559.73
2018-03-25T10:12:56.844Z,100558.88
2018-03-25T10:17:59.365Z,100558.08
2018-03-25T10:23:01.840Z,100553.20
2018-03-25T10:28:04.327Z,100550.22
2018-03-25T10:33:07.133Z,100562.47
2018-03-25T10:38:09.771Z,100561.61
2018-03-25T10:43:12.323Z,100551.34
2018-03-25T10:48:14.984Z,100555.97
2018-03-25T10:53:17.576Z,100556.33
2018-03-25T10:58:20.105Z,100554.38
2018-03-25T11:03:22.598Z,100557.80
2018-03-25T11:08:25.088Z,100562.37
2018-03-25T11:13:27.565Z,100555.94
2018-03-25T11:18:30.059Z,100559.72
2018-03-25T11:23:32.569Z,100555.55
2018-03-25T11:28:35.047Z,100557.14
2018-03-25T11:33:37.660Z,100564.30
2018-03-25T11:38:40.237Z,100558.97
2018-03-25T11:43:42.843Z,100559.05
2018-03-25T11:48:45.466Z,100558.92
2018-03-25T11:53:47.950Z,100555.52
2018-03-25T11:58:50.466Z,100556.37
2018-03-25T12:03:53.023Z,100558.75
2018-03-25T12:08:55.498Z,100552.56
2018-03-25T12:13:58.163Z,100555.94
2018-03-25T12:19:01.592Z,100550.64
2018-03-25T12:24:04.068Z,100550.70
2018-03-25T12:29:06.596Z,100544.55
2018-03-25T12:34:09.117Z,100539.75
2018-03-25T12:39:11.692Z,100532.72
2018-03-25T12:44:14.190Z,100522.58
2018-03-25T12:49:16.688Z,100521.03
2018-03-25T12:54:19.200Z,100519.11
2018-03-25T12:59:22.110Z,100511.51
2018-03-25T13:04:25.606Z,100510.71
2018-03-25T13:09:28.104Z,100513.06
2018-03-25T13:14:30.627Z,100515.13
2018-03-25T13:19:33.184Z,100515.16
2018-03-25T13:24:35.694Z,100510.66
2018-03-25T13:29:39.417Z,100510.05
2018-03-25T13:34:41.986Z,100512.47
2018-03-25T13:39:44.480Z,100509.33
2018-03-25T13:44:46.981Z,100510.90
2018-03-25T13:49:49.494Z,100506.52
2018-03-25T13:54:51.994Z,100509.40
2018-03-25T13:59:54.475Z,100502.16
2018-03-25T14:04:56.986Z,100509.34
2018-03-25T14:10:00.271Z,100503.42
2018-03-25T14:15:02.802Z,100502.39
2018-03-25T14:20:05.319Z,100494.17
2018-03-25T14:25:07.896Z,100497.50
2018-03-25T14:30:10.486Z,100492.50
2018-03-25T14:35:13.145Z,100491.78
2018-03-25T14:40:15.659Z,100484.54
2018-03-25T14:45:18.215Z,100492.11
2018-03-25T14:50:20.741Z,100478.81
2018-03-25T14:55:23.236Z,100485.75
2018-03-25T15:00:25.715Z,100483.07
2018-03-25T15:05:28.197Z,100481.13
2018-03-25T15:10:30.710Z,100478.58
2018-03-25T15:15:33.286Z,100482.85
2018-03-25T15:20:35.763Z,100483.56
2018-03-25T15:25:38.279Z,100485.68
2018-03-25T15:30:40.877Z,100488.58
2018-03-25T15:35:43.433Z,100493.95
2018-03-25T15:40:45.950Z,100492.55
2018-03-25T15:45:48.441Z,100491.52
2018-03-25T15:50:50.943Z,100494.66
2018-03-25T15:55:53.431Z,100484.44
2018-03-25T16:00:56.500Z,100485.28
2018-03-25T16:05:58.965Z,100487.16
2018-03-25T16:11:01.470Z,100483.70
2018-03-25T16:16:03.998Z,100495.01
2018-03-25T16:21:06.567Z,100495.36
2018-03-25T16:26:09.075Z,100489.83
2018-03-25T16:31:11.647Z,100491.20
2018-03-25T16:36:14.157Z,100499.39
2018-03-25T16:41:16.720Z,100500.75
2018-03-25T16:46:19.275Z,100512.30
2018-03-25T16:51:21.778Z,100520.10
2018-03-25T16:56:24.311Z,100521.03
2018-03-25T17:01:26.824Z,100524.28
2018-03-25T17:06:29.290Z,100529.84
2018-03-25T17:11:31.745Z,100525.83
2018-03-25T17:16:34.204Z,100530.91
2018-03-25T17:21:36.724Z,100539.83
2018-03-25T17:26:39.244Z,100549.55
2018-03-25T17:31:41.781Z,100558.28
2018-03-25T17:36:44.323Z,100561.73
2018-03-25T17:41:46.785Z,100558.92
2018-03-25T17:46:49.265Z,100558.27
2018-03-25T17:51:52.337Z,100569.50
2018-03-25T17:56:54.836Z,100570.91
2018-03-25T18:01:57.364Z,100578.17
2018-03-25T18:06:59.809Z,100578.52
2018-03-25T18:12:02.295Z,100593.81
2018-03-25T18:17:05.602Z,100602.81
2018-03-25T18:22:08.195Z,100596.47
2018-03-25T18:27:10.702Z,100597.52
2018-03-25T18:32:13.204Z,100602.08
2018-03-25T18:37:15.905Z,100608.19
2018-03-25T18:42:18.377Z,100611.92
2018-03-25T18:47:20.882Z,100610.37
2018-03-25T18:52:23.582Z,100616.04
2018-03-25T18:57:26.089Z,100609.52
2018-03-25T19:02:28.621Z,100613.26
2018-03-25T19:07:31.150Z,100617.41
2018-03-25T19:12:33.724Z,100618.48
2018-03-25T19:17:36.419Z,100625.08
2018-03-25T19:22:40.002Z,100627.28
2018-03-25T19:27:43.475Z,100633.83
2018-03-25T19:32:46.124Z,100629.00
2018-03-25T19:37:48.801Z,100634.43
2018-03-25T19:42:52.756Z,100635.68
2018-03-25T19:47:55.295Z,100637.36
2018-03-25T19:52:57.773Z,100643.37
2018-03-25T19:58:02.249Z,100641.76
2018-03-25T20:03:04.721Z,100645.44
2018-03-25T20:08:07.211Z,100640.63
2018-03-25T20:13:09.680Z,100640.45
2018-03-25T20:18:12.194Z,100636.79
2018-03-25T20:23:14.668Z,100639.16
2018-03-25T20:28:17.208Z,100645.81
2018-03-25T20:33:19.687Z,100648.41
2018-03-25T20:38:24.625Z,100647.84
2018-03-25T20:43:27.213Z,100649.57
2018-03-25T20:48:29.706Z,100650.19
2018-03-25T20:53:34.516Z,100658.92
2018-03-25T20:58:39.464Z,100659.30
2018-03-25T21:03:42.082Z,100657.70
2018-03-25T21:08:44.589Z,100661.38
2018-03-25T21:13:47.270Z,100660.48
2018-03-25T21:18:49.775Z,100666.48
2018-03-25T21:23:52.262Z,100671.13
2018-03-25T21:28:55.864Z,100668.41
2018-03-25T21:34:00.764Z,100666.47
2018-03-25T21:39:04.366Z,100672.16
2018-03-25T21:44:11.128Z,100667.95
2018-03-25T21:49:15.933Z,100666.47
2018-03-25T21:54:20.301Z,100673.22
2018-03-25T21:59:26.296Z,100672.12
2018-03-25T22:04:31.570Z,100680.23
2018-03-25T22:09:34.405Z,100671.95
2018-03-25T22:14:36.917Z,100681.88
2018-03-25T22:19:39.484Z,100678.97
2018-03-25T22:24:41.987Z,100682.27
2018-03-25T22:29:44.476Z,100679.72
2018-03-25T22:34:47.011Z,100672.86
2018-03-25T22:39:49.527Z,100674.14
2018-03-25T22:44:52.001Z,100676.38
2018-03-25T22:49:54.457Z,100685.84
2018-03-25T22:54:56.933Z,100683.73
2018-03-25T22:59:59.427Z,100683.05
2018-03-25T23:05:01.908Z,100682.74
2018-03-25T23:10:04.408Z,100678.09
2018-03-25T23:15:06.893Z,100670.54
2018-03-25T23:20:09.397Z,100675.20
2018-03-25T23:25:11.885Z,100673.31
2018-03-25T23:30:14.406Z,100674.77
2018-03-25T23:35:17.017Z,100673.57
2018-03-25T23:40:19.474Z,100676.06
2018-03-25T23:45:21.926Z,100673.53
2018-03-25T23:50:24.396Z,100680.91
2018-03-25T23:55:26.876Z,100681.04
